sensor_id;sensor_type;location;lat;lon;timestamp;pressure;altitude;pressure_sealevel;temperature;humidity
51452;BME280;37521;52.020;-1.740;2022-11-15T00:00:02;98568.72;;;5.40;100.00
51452;BME280;37521;52.020;-1.740;2022-11-15T00:02:49;98565.16;;;5.41;100.00
51452;BME280;37521;52.020;-1.740;2022-11-15T00:05:36;98565.41;;;5.37;100.00
51452;BME280;37521;52.020;-1.740;2022-11-15T00:08:23;98563.78;;;5.34;100.00
51452;BME280;37521;52.020;-1.740;2022-11-15T00:11:12;98558.53;;;5.34;100.00
51452;BME280;37521;52.020;-1.740;2022-11-15T00:13:58;98548.88;;;5.36;100.00
51452;BME280;37521;52.020;-1.740;2022-11-15T00:16:47;98541.56;;;5.43;100.00
51452;BME280;37521;52.020;-1.740;2022-11-15T00:19:34;98534.56;;;5.43;100.00
51452;BME280;37521;52.020;-1.740;2022-11-15T00:22:21;98533.75;;;5.41;100.00
51452;BME280;37521;52.020;-1.740;2022-11-15T00:25:07;98531.78;;;5.46;100.00
51452;BME280;37521;52.020;-1.740;2022-11-15T00:27:56;98517.69;;;5.49;100.00
51452;BME280;37521;52.020;-1.740;2022-11-15T00:30:43;98513.31;;;5.50;100.00
51452;BME280;37521;52.020;-1.740;2022-11-15T00:33:30;98498.38;;;5.52;100.00
51452;BME280;37521;52.020;-1.740;2022-11-15T00:36:17;98486.34;;;5.47;100.00
51452;BME280;37521;52.020;-1.740;2022-11-15T00:39:04;98483.25;;;5.39;100.00
51452;BME280;37521;52.020;-1.740;2022-11-15T00:41:51;98480.19;;;5.31;100.00
51452;BME280;37521;52.020;-1.740;2022-11-15T00:44:39;98483.19;;;5.24;100.00
51452;BME280;37521;52.020;-1.740;2022-11-15T00:47:26;98464.09;;;5.22;100.00
51452;BME280;37521;52.020;-1.740;2022-11-15T00:50:13;98453.56;;;5.23;100.00
51452;BME280;37521;52.020;-1.740;2022-11-15T00:53:00;98454.16;;;5.28;100.00
51452;BME280;37521;52.020;-1.740;2022-11-15T00:55:47;98439.69;;;5.38;100.00
51452;BME280;37521;52.020;-1.740;2022-11-15T00:58:33;98425.25;;;5.49;100.00
51452;BME280;37521;52.020;-1.740;2022-11-15T01:01:26;98426.63;;;5.56;100.00
51452;BME280;37521;52.020;-1.740;2022-11-15T01:04:16;98419.34;;;5.61;100.00
51452;BME280;37521;52.020;-1.740;2022-11-15T01:07:03;98421.38;;;5.56;100.00
51452;BME280;37521;52.020;-1.740;2022-11-15T01:09:50;98412.16;;;5.49;100.00
51452;BME280;37521;52.020;-1.740;2022-11-15T01:12:37;98411.34;;;5.46;100.00
51452;BME280;37521;52.020;-1.740;2022-11-15T01:15:23;98404.13;;;5.52;100.00
51452;BME280;37521;52.020;-1.740;2022-11-15T01:18:10;98408.50;;;5.51;100.00
51452;BME280;37521;52.020;-1.740;2022-11-15T01:20:58;98399.81;;;5.51;100.00
51452;BME280;37521;52.020;-1.740;2022-11-15T01:23:45;98404.13;;;5.52;100.00
51452;BME280;37521;52.020;-1.740;2022-11-15T01:26:31;98397.03;;;5.54;100.00
51452;BME280;37521;52.020;-1.740;2022-11-15T01:29:18;98389.13;;;5.55;100.00
51452;BME280;37521;52.020;-1.740;2022-11-15T01:32:04;98381.84;;;5.60;100.00
51452;BME280;37521;52.020;-1.740;2022-11-15T01:34:51;98376.69;;;5.59;100.00
51452;BME280;37521;52.020;-1.740;2022-11-15T01:37:39;98369.69;;;5.59;100.00
51452;BME280;37521;52.020;-1.740;2022-11-15T01:40:25;98361.59;;;5.64;100.00
51452;BME280;37521;52.020;-1.740;2022-11-15T01:43:31;98342.16;;;5.68;100.00
51452;BME280;37521;52.020;-1.740;2022-11-15T01:46:27;98331.63;;;5.69;100.00
51452;BME280;37521;52.020;-1.740;2022-11-15T01:49:18;98307.03;;;5.72;100.00
51452;BME280;37521;52.020;-1.740;2022-11-15T01:52:10;98296.34;;;5.77;100.00
51452;BME280;37521;52.020;-1.740;2022-11-15T01:55:03;98302.22;;;5.80;100.00
51452;BME280;37521;52.020;-1.740;2022-11-15T01:57:54;98309.84;;;5.85;100.00
51452;BME280;37521;52.020;-1.740;2022-11-15T02:00:42;98303.13;;;5.96;100.00
51452;BME280;37521;52.020;-1.740;2022-11-15T02:03:34;98285.03;;;6.08;100.00
51452;BME280;37521;52.020;-1.740;2022-11-15T02:06:24;98276.09;;;6.12;100.00
51452;BME280;37521;52.020;-1.740;2022-11-15T02:09:11;98261.94;;;6.14;100.00
51452;BME280;37521;52.020;-1.740;2022-11-15T02:12:00;98249.53;;;6.18;100.00
51452;BME280;37521;52.020;-1.740;2022-11-15T02:14:48;98253.00;;;6.18;100.00
51452;BME280;37521;52.020;-1.740;2022-11-15T02:17:50;98241.50;;;6.21;100.00
51452;BME280;37521;52.020;-1.740;2022-11-15T02:20:44;98235.16;;;6.25;100.00
51452;BME280;37521;52.020;-1.740;2022-11-15T02:27:04;98232.78;;;6.36;100.00
51452;BME280;37521;52.020;-1.740;2022-11-15T02:30:18;98216.84;;;6.39;100.00
51452;BME280;37521;52.020;-1.740;2022-11-15T02:33:14;98219.97;;;6.46;100.00
51452;BME280;37521;52.020;-1.740;2022-11-15T02:36:10;98209.13;;;6.52;100.00
51452;BME280;37521;52.020;-1.740;2022-11-15T02:39:03;98204.47;;;6.57;100.00
51452;BME280;37521;52.020;-1.740;2022-11-15T02:41:55;98196.41;;;6.60;100.00
51452;BME280;37521;52.020;-1.740;2022-11-15T02:44:45;98188.25;;;6.65;100.00
51452;BME280;37521;52.020;-1.740;2022-11-15T02:47:44;98173.38;;;6.65;100.00
51452;BME280;37521;52.020;-1.740;2022-11-15T02:50:32;98167.09;;;6.68;100.00
51452;BME280;37521;52.020;-1.740;2022-11-15T02:53:23;98165.25;;;6.70;100.00
51452;BME280;37521;52.020;-1.740;2022-11-15T02:56:11;98158.94;;;6.72;100.00
51452;BME280;37521;52.020;-1.740;2022-11-15T02:59:08;98144.72;;;6.76;100.00
51452;BME280;37521;52.020;-1.740;2022-11-15T03:02:10;98143.69;;;6.79;100.00
51452;BME280;37521;52.020;-1.740;2022-11-15T03:05:05;98133.94;;;6.81;100.00
51452;BME280;37521;52.020;-1.740;2022-11-15T03:08:01;98122.50;;;6.82;100.00
51452;BME280;37521;52.020;-1.740;2022-11-15T03:10:56;98125.91;;;6.84;100.00
51452;BME280;37521;52.020;-1.740;2022-11-15T03:13:50;98117.09;;;6.85;100.00
51452;BME280;37521;52.020;-1.740;2022-11-15T03:16:44;98116.88;;;6.88;100.00
51452;BME280;37521;52.020;-1.740;2022-11-15T03:19:38;98113.16;;;6.92;100.00
51452;BME280;37521;52.020;-1.740;2022-11-15T03:22:30;98102.44;;;6.95;100.00
51452;BME280;37521;52.020;-1.740;2022-11-15T03:25:22;98096.09;;;6.99;100.00
51452;BME280;37521;52.020;-1.740;2022-11-15T03:28:13;98089.91;;;7.00;100.00
51452;BME280;37521;52.020;-1.740;2022-11-15T03:31:04;98097.03;;;6.98;100.00
51452;BME280;37521;52.020;-1.740;2022-11-15T03:34:19;98088.31;;;6.98;100.00
51452;BME280;37521;52.020;-1.740;2022-11-15T03:37:08;98078.84;;;6.95;100.00
51452;BME280;37521;52.020;-1.740;2022-11-15T03:39:58;98086.91;;;6.92;100.00
51452;BME280;37521;52.020;-1.740;2022-11-15T03:42:52;98075.75;;;6.89;100.00
51452;BME280;37521;52.020;-1.740;2022-11-15T03:45:44;98078.69;;;6.84;100.00
51452;BME280;37521;52.020;-1.740;2022-11-15T03:48:37;98064.91;;;6.80;100.00
51452;BME280;37521;52.020;-1.740;2022-11-15T03:51:26;98058.06;;;6.78;100.00
51452;BME280;37521;52.020;-1.740;2022-11-15T03:54:13;98047.59;;;6.78;100.00
51452;BME280;37521;52.020;-1.740;2022-11-15T03:57:01;98037.09;;;6.78;100.00
51452;BME280;37521;52.020;-1.740;2022-11-15T03:59:48;98035.22;;;6.80;100.00
51452;BME280;37521;52.020;-1.740;2022-11-15T04:02:35;98024.53;;;6.83;100.00
51452;BME280;37521;52.020;-1.740;2022-11-15T04:05:22;98010.28;;;6.87;100.00
51452;BME280;37521;52.020;-1.740;2022-11-15T04:08:08;98010.84;;;6.92;100.00
51452;BME280;37521;52.020;-1.740;2022-11-15T04:10:55;98001.06;;;6.94;100.00
51452;BME280;37521;52.020;-1.740;2022-11-15T04:13:42;97987.78;;;6.97;100.00
51452;BME280;37521;52.020;-1.740;2022-11-15T04:16:29;97991.97;;;7.00;100.00
51452;BME280;37521;52.020;-1.740;2022-11-15T04:19:17;97979.81;;;6.99;100.00
51452;BME280;37521;52.020;-1.740;2022-11-15T04:22:21;97974.44;;;7.00;100.00
51452;BME280;37521;52.020;-1.740;2022-11-15T04:25:25;97981.38;;;7.01;100.00
51452;BME280;37521;52.020;-1.740;2022-11-15T04:28:16;97978.84;;;7.00;100.00
51452;BME280;37521;52.020;-1.740;2022-11-15T04:31:05;97967.53;;;6.99;100.00
51452;BME280;37521;52.020;-1.740;2022-11-15T04:33:52;97969.19;;;7.00;100.00
51452;BME280;37521;52.020;-1.740;2022-11-15T04:36:38;97963.00;;;7.01;100.00
51452;BME280;37521;52.020;-1.740;2022-11-15T04:39:43;97953.47;;;7.00;100.00
51452;BME280;37521;52.020;-1.740;2022-11-15T04:42:29;97963.94;;;7.00;100.00
51452;BME280;37521;52.020;-1.740;2022-11-15T04:45:16;97962.09;;;7.02;100.00
51452;BME280;37521;52.020;-1.740;2022-11-15T04:48:04;97958.53;;;7.03;100.00
51452;BME280;37521;52.020;-1.740;2022-11-15T04:50:51;97951.38;;;7.05;100.00
51452;BME280;37521;52.020;-1.740;2022-11-15T04:53:37;97956.41;;;7.08;100.00
51452;BME280;37521;52.020;-1.740;2022-11-15T04:56:24;97950.03;;;7.13;100.00
51452;BME280;37521;52.020;-1.740;2022-11-15T04:59:11;97950.69;;;7.16;100.00
51452;BME280;37521;52.020;-1.740;2022-11-15T05:01:57;97942.44;;;7.22;100.00
51452;BME280;37521;52.020;-1.740;2022-11-15T05:04:45;97935.81;;;7.29;100.00
51452;BME280;37521;52.020;-1.740;2022-11-15T05:07:31;97932.75;;;7.35;100.00
51452;BME280;37521;52.020;-1.740;2022-11-15T05:10:17;97926.28;;;7.41;100.00
51452;BME280;37521;52.020;-1.740;2022-11-15T05:13:04;97912.00;;;7.45;100.00
51452;BME280;37521;52.020;-1.740;2022-11-15T05:15:51;97912.56;;;7.50;100.00
51452;BME280;37521;52.020;-1.740;2022-11-15T05:18:37;97906.13;;;7.54;100.00
51452;BME280;37521;52.020;-1.740;2022-11-15T05:21:27;97911.19;;;7.57;100.00
51452;BME280;37521;52.020;-1.740;2022-11-15T05:24:13;97895.31;;;7.59;100.00
51452;BME280;37521;52.020;-1.740;2022-11-15T05:27:00;97883.97;;;7.58;100.00
51452;BME280;37521;52.020;-1.740;2022-11-15T05:29:47;97876.94;;;7.59;100.00
51452;BME280;37521;52.020;-1.740;2022-11-15T05:32:33;97880.41;;;7.59;100.00
51452;BME280;37521;52.020;-1.740;2022-11-15T05:35:27;97889.97;;;7.60;100.00
51452;BME280;37521;52.020;-1.740;2022-11-15T05:38:17;97881.97;;;7.62;100.00
51452;BME280;37521;52.020;-1.740;2022-11-15T05:41:04;97867.91;;;7.63;100.00
51452;BME280;37521;52.020;-1.740;2022-11-15T05:43:51;97866.00;;;7.65;100.00
51452;BME280;37521;52.020;-1.740;2022-11-15T05:46:39;97866.84;;;7.65;100.00
51452;BME280;37521;52.020;-1.740;2022-11-15T05:49:30;97854.44;;;7.68;100.00
51452;BME280;37521;52.020;-1.740;2022-11-15T05:52:20;97855.19;;;7.70;100.00
51452;BME280;37521;52.020;-1.740;2022-11-15T05:55:09;97847.09;;;7.73;100.00
51452;BME280;37521;52.020;-1.740;2022-11-15T05:57:56;97846.25;;;7.72;100.00
51452;BME280;37521;52.020;-1.740;2022-11-15T06:00:43;97853.19;;;7.73;100.00
51452;BME280;37521;52.020;-1.740;2022-11-15T06:03:30;97842.69;;;7.73;100.00
51452;BME280;37521;52.020;-1.740;2022-11-15T06:06:17;97844.34;;;7.74;100.00
51452;BME280;37521;52.020;-1.740;2022-11-15T06:09:03;97839.94;;;7.75;100.00
51452;BME280;37521;52.020;-1.740;2022-11-15T06:11:51;97828.59;;;7.74;100.00
51452;BME280;37521;52.020;-1.740;2022-11-15T06:14:38;97827.56;;;7.77;100.00
51452;BME280;37521;52.020;-1.740;2022-11-15T06:17:25;97825.88;;;7.76;100.00
51452;BME280;37521;52.020;-1.740;2022-11-15T06:20:11;97828.41;;;7.77;100.00
51452;BME280;37521;52.020;-1.740;2022-11-15T06:22:58;97819.75;;;7.75;100.00
51452;BME280;37521;52.020;-1.740;2022-11-15T06:25:45;97819.56;;;7.78;100.00
51452;BME280;37521;52.020;-1.740;2022-11-15T06:28:33;97812.63;;;7.77;100.00
51452;BME280;37521;52.020;-1.740;2022-11-15T06:31:20;97806.31;;;7.80;100.00
51452;BME280;37521;52.020;-1.740;2022-11-15T06:34:07;97803.69;;;7.80;100.00
51452;BME280;37521;52.020;-1.740;2022-11-15T06:36:54;97794.84;;;7.81;100.00
51452;BME280;37521;52.020;-1.740;2022-11-15T06:39:40;97786.97;;;7.81;100.00
51452;BME280;37521;52.020;-1.740;2022-11-15T06:42:27;97790.34;;;7.83;100.00
51452;BME280;37521;52.020;-1.740;2022-11-15T06:45:15;97784.03;;;7.85;100.00
51452;BME280;37521;52.020;-1.740;2022-11-15T06:48:02;97772.56;;;7.86;100.00
51452;BME280;37521;52.020;-1.740;2022-11-15T06:50:50;97767.19;;;7.88;100.00
51452;BME280;37521;52.020;-1.740;2022-11-15T06:53:38;97758.38;;;7.89;100.00
51452;BME280;37521;52.020;-1.740;2022-11-15T06:56:24;97759.13;;;7.91;100.00
51452;BME280;37521;52.020;-1.740;2022-11-15T06:59:11;97763.41;;;7.92;100.00
51452;BME280;37521;52.020;-1.740;2022-11-15T07:01:59;97746.69;;;7.93;100.00
51452;BME280;37521;52.020;-1.740;2022-11-15T07:04:46;97745.75;;;7.94;100.00
51452;BME280;37521;52.020;-1.740;2022-11-15T07:07:33;97739.53;;;7.95;100.00
51452;BME280;37521;52.020;-1.740;2022-11-15T07:10:20;97743.63;;;7.99;100.00
51452;BME280;37521;52.020;-1.740;2022-11-15T07:13:07;97728.69;;;8.00;100.00
51452;BME280;37521;52.020;-1.740;2022-11-15T07:15:54;97728.59;;;8.01;100.00
51452;BME280;37521;52.020;-1.740;2022-11-15T07:18:42;97722.38;;;8.02;100.00
51452;BME280;37521;52.020;-1.740;2022-11-15T07:21:28;97714.41;;;8.04;100.00
51452;BME280;37521;52.020;-1.740;2022-11-15T07:24:15;97708.31;;;8.03;100.00
51452;BME280;37521;52.020;-1.740;2022-11-15T07:27:02;97700.91;;;8.08;100.00
51452;BME280;37521;52.020;-1.740;2022-11-15T07:29:49;97706.16;;;8.08;100.00
51452;BME280;37521;52.020;-1.740;2022-11-15T07:32:35;97689.34;;;8.11;100.00
51452;BME280;37521;52.020;-1.740;2022-11-15T07:35:24;97685.75;;;8.12;100.00
51452;BME280;37521;52.020;-1.740;2022-11-15T07:38:11;97675.97;;;8.14;100.00
51452;BME280;37521;52.020;-1.740;2022-11-15T07:41:01;97675.84;;;8.15;100.00
51452;BME280;37521;52.020;-1.740;2022-11-15T07:43:51;97663.66;;;8.14;100.00
51452;BME280;37521;52.020;-1.740;2022-11-15T07:46:37;97660.94;;;8.16;100.00
51452;BME280;37521;52.020;-1.740;2022-11-15T07:49:24;97659.03;;;8.18;100.00
51452;BME280;37521;52.020;-1.740;2022-11-15T07:52:12;97665.13;;;8.18;100.00
51452;BME280;37521;52.020;-1.740;2022-11-15T07:54:59;97657.97;;;8.20;100.00
51452;BME280;37521;52.020;-1.740;2022-11-15T07:57:46;97674.34;;;8.24;100.00
51452;BME280;37521;52.020;-1.740;2022-11-15T08:00:33;97645.31;;;8.26;100.00
51452;BME280;37521;52.020;-1.740;2022-11-15T08:03:20;97642.69;;;8.26;100.00
51452;BME280;37521;52.020;-1.740;2022-11-15T08:06:07;97644.34;;;8.27;100.00
51452;BME280;37521;52.020;-1.740;2022-11-15T08:08:55;97636.25;;;8.30;100.00
51452;BME280;37521;52.020;-1.740;2022-11-15T08:11:42;97624.78;;;8.31;100.00
51452;BME280;37521;52.020;-1.740;2022-11-15T08:14:28;97623.81;;;8.32;100.00
51452;BME280;37521;52.020;-1.740;2022-11-15T08:17:15;97617.63;;;8.33;100.00
51452;BME280;37521;52.020;-1.740;2022-11-15T08:20:02;97616.66;;;8.34;100.00
51452;BME280;37521;52.020;-1.740;2022-11-15T08:22:49;97611.22;;;8.37;100.00
51452;BME280;37521;52.020;-1.740;2022-11-15T08:25:37;97624.22;;;8.38;100.00
51452;BME280;37521;52.020;-1.740;2022-11-15T08:28:24;97605.72;;;8.40;100.00
51452;BME280;37521;52.020;-1.740;2022-11-15T08:31:13;97600.22;;;8.43;100.00
51452;BME280;37521;52.020;-1.740;2022-11-15T08:34:00;97600.09;;;8.44;100.00
51452;BME280;37521;52.020;-1.740;2022-11-15T08:36:47;97607.88;;;8.46;100.00
51452;BME280;37521;52.020;-1.740;2022-11-15T08:39:34;97601.66;;;8.47;100.00
51452;BME280;37521;52.020;-1.740;2022-11-15T08:42:22;97600.59;;;8.50;100.00
51452;BME280;37521;52.020;-1.740;2022-11-15T08:45:09;97585.66;;;8.50;100.00
51452;BME280;37521;52.020;-1.740;2022-11-15T08:47:55;97582.06;;;8.51;100.00
51452;BME280;37521;52.020;-1.740;2022-11-15T08:50:42;97578.47;;;8.52;100.00
51452;BME280;37521;52.020;-1.740;2022-11-15T08:53:29;97571.44;;;8.53;100.00
51452;BME280;37521;52.020;-1.740;2022-11-15T08:56:16;97567.72;;;8.55;100.00
51452;BME280;37521;52.020;-1.740;2022-11-15T08:59:04;97569.41;;;8.56;100.00
51452;BME280;37521;52.020;-1.740;2022-11-15T09:01:50;97562.22;;;8.58;100.00
51452;BME280;37521;52.020;-1.740;2022-11-15T09:04:37;97560.31;;;8.60;100.00
51452;BME280;37521;52.020;-1.740;2022-11-15T09:07:25;97555.88;;;8.61;100.00
51452;BME280;37521;52.020;-1.740;2022-11-15T09:10:12;97551.47;;;8.61;100.00
51452;BME280;37521;52.020;-1.740;2022-11-15T09:12:58;97543.47;;;8.63;100.00
51452;BME280;37521;52.020;-1.740;2022-11-15T09:15:47;97551.25;;;8.64;100.00
51452;BME280;37521;52.020;-1.740;2022-11-15T09:18:34;97557.22;;;8.66;100.00
51452;BME280;37521;52.020;-1.740;2022-11-15T09:21:21;97552.66;;;8.68;100.00
51452;BME280;37521;52.020;-1.740;2022-11-15T09:24:08;97541.19;;;8.69;100.00
51452;BME280;37521;52.020;-1.740;2022-11-15T09:26:55;97548.22;;;8.69;100.00
51452;BME280;37521;52.020;-1.740;2022-11-15T09:29:42;97538.31;;;8.72;100.00
51452;BME280;37521;52.020;-1.740;2022-11-15T09:32:30;97544.28;;;8.74;100.00
51452;BME280;37521;52.020;-1.740;2022-11-15T09:35:23;97538.06;;;8.76;100.00
51452;BME280;37521;52.020;-1.740;2022-11-15T09:38:10;97530.91;;;8.78;100.00
51452;BME280;37521;52.020;-1.740;2022-11-15T09:41:14;97517.75;;;8.78;100.00
51452;BME280;37521;52.020;-1.740;2022-11-15T09:44:14;97516.53;;;8.82;100.00
51452;BME280;37521;52.020;-1.740;2022-11-15T09:50:34;97495.25;;;8.85;100.00
51452;BME280;37521;52.020;-1.740;2022-11-15T09:53:04;97489.88;;;8.86;100.00
51452;BME280;37521;52.020;-1.740;2022-11-15T09:55:39;97495.84;;;8.88;100.00
51452;BME280;37521;52.020;-1.740;2022-11-15T09:58:18;97485.09;;;8.91;100.00
51452;BME280;37521;52.020;-1.740;2022-11-15T10:00:51;97481.50;;;8.92;100.00
51452;BME280;37521;52.020;-1.740;2022-11-15T10:03:26;97486.75;;;8.92;100.00
51452;BME280;37521;52.020;-1.740;2022-11-15T10:05:59;97485.91;;;8.92;100.00
51452;BME280;37521;52.020;-1.740;2022-11-15T10:08:40;97481.50;;;8.92;100.00
51452;BME280;37521;52.020;-1.740;2022-11-15T10:11:17;97478.84;;;8.92;100.00
51452;BME280;37521;52.020;-1.740;2022-11-15T10:14:10;97469.16;;;8.93;100.00
51452;BME280;37521;52.020;-1.740;2022-11-15T10:19:44;97472.75;;;8.92;100.00
51452;BME280;37521;52.020;-1.740;2022-11-15T10:22:24;97469.28;;;8.91;100.00
51452;BME280;37521;52.020;-1.740;2022-11-15T10:25:08;97465.69;;;8.92;100.00
51452;BME280;37521;52.020;-1.740;2022-11-15T10:27:39;97454.22;;;8.93;100.00
51452;BME280;37521;52.020;-1.740;2022-11-15T10:30:12;97451.56;;;8.93;100.00
51452;BME280;37521;52.020;-1.740;2022-11-15T10:32:42;97439.38;;;8.92;100.00
51452;BME280;37521;52.020;-1.740;2022-11-15T10:35:20;97438.56;;;8.92;100.00
51452;BME280;37521;52.020;-1.740;2022-11-15T10:37:49;97437.72;;;8.91;100.00
51452;BME280;37521;52.020;-1.740;2022-11-15T10:40:20;97434.00;;;8.94;100.00
51452;BME280;37521;52.020;-1.740;2022-11-15T10:43:04;97415.56;;;8.94;100.00
51452;BME280;37521;52.020;-1.740;2022-11-15T10:45:33;97406.00;;;8.93;100.00
51452;BME280;37521;52.020;-1.740;2022-11-15T10:48:21;97402.53;;;8.92;100.00
51452;BME280;37521;52.020;-1.740;2022-11-15T10:50:52;97401.72;;;8.92;100.00
51452;BME280;37521;52.020;-1.740;2022-11-15T10:53:26;97403.38;;;8.93;100.00
51452;BME280;37521;52.020;-1.740;2022-11-15T10:56:00;97392.72;;;8.94;100.00
51452;BME280;37521;52.020;-1.740;2022-11-15T10:58:34;97379.44;;;8.96;100.00
51452;BME280;37521;52.020;-1.740;2022-11-15T11:01:10;97377.75;;;8.95;100.00
51452;BME280;37521;52.020;-1.740;2022-11-15T11:03:40;97362.81;;;8.95;100.00
51452;BME280;37521;52.020;-1.740;2022-11-15T11:06:11;97369.75;;;8.96;100.00
51452;BME280;37521;52.020;-1.740;2022-11-15T11:08:54;97365.19;;;8.98;100.00
51452;BME280;37521;52.020;-1.740;2022-11-15T11:11:22;97359.09;;;8.98;100.00
51452;BME280;37521;52.020;-1.740;2022-11-15T11:13:51;97364.38;;;8.98;100.00
51452;BME280;37521;52.020;-1.740;2022-11-15T11:16:31;97352.19;;;8.97;100.00
51452;BME280;37521;52.020;-1.740;2022-11-15T11:19:17;97348.81;;;8.95;100.00
51452;BME280;37521;52.020;-1.740;2022-11-15T11:21:51;97341.88;;;8.94;100.00
51452;BME280;37521;52.020;-1.740;2022-11-15T11:24:31;97335.78;;;8.93;100.00
51452;BME280;37521;52.020;-1.740;2022-11-15T11:27:18;97323.59;;;8.92;100.00
51452;BME280;37521;52.020;-1.740;2022-11-15T11:30:01;97360.44;;;8.92;100.00
51452;BME280;37521;52.020;-1.740;2022-11-15T11:32:45;97380.66;;;8.92;100.00
51452;BME280;37521;52.020;-1.740;2022-11-15T11:35:24;97388.69;;;8.90;100.00
51452;BME280;37521;52.020;-1.740;2022-11-15T11:38:04;97370.75;;;8.84;100.00
51452;BME280;37521;52.020;-1.740;2022-11-15T11:40:43;97346.75;;;8.78;100.00
51452;BME280;37521;52.020;-1.740;2022-11-15T11:43:17;97321.63;;;8.73;100.00
51452;BME280;37521;52.020;-1.740;2022-11-15T11:46:04;97319.97;;;8.72;100.00
51452;BME280;37521;52.020;-1.740;2022-11-15T11:48:41;97331.47;;;8.71;100.00
51452;BME280;37521;52.020;-1.740;2022-11-15T11:51:12;97338.38;;;8.72;100.00
51452;BME280;37521;52.020;-1.740;2022-11-15T11:53:45;97342.44;;;8.77;100.00
51452;BME280;37521;52.020;-1.740;2022-11-15T11:56:23;97358.94;;;8.79;100.00
51452;BME280;37521;52.020;-1.740;2022-11-15T11:58:54;97354.63;;;8.78;100.00
51452;BME280;37521;52.020;-1.740;2022-11-15T12:01:26;97350.56;;;8.73;100.00
51452;BME280;37521;52.020;-1.740;2022-11-15T12:03:59;97364.31;;;8.77;100.00
51452;BME280;37521;52.020;-1.740;2022-11-15T12:06:33;97332.34;;;8.82;100.00
51452;BME280;37521;52.020;-1.740;2022-11-15T12:09:11;97327.19;;;8.91;100.00
51452;BME280;37521;52.020;-1.740;2022-11-15T12:11:51;97317.75;;;8.89;100.00
51452;BME280;37521;52.020;-1.740;2022-11-15T12:14:26;97355.31;;;8.91;100.00
51452;BME280;37521;52.020;-1.740;2022-11-15T12:16:57;97352.69;;;8.91;100.00
51452;BME280;37521;52.020;-1.740;2022-11-15T12:19:25;97309.09;;;8.98;100.00
51452;BME280;37521;52.020;-1.740;2022-11-15T12:22:00;97333.63;;;9.19;100.00
51452;BME280;37521;52.020;-1.740;2022-11-15T12:24:35;97341.66;;;9.39;100.00
51452;BME280;37521;52.020;-1.740;2022-11-15T12:27:14;97342.03;;;9.55;100.00
51452;BME280;37521;52.020;-1.740;2022-11-15T12:29:55;97330.88;;;9.42;100.00
51452;BME280;37521;52.020;-1.740;2022-11-15T12:32:26;97333.25;;;9.24;100.00
51452;BME280;37521;52.020;-1.740;2022-11-15T12:34:55;97326.00;;;9.16;100.00
51452;BME280;37521;52.020;-1.740;2022-11-15T12:37:47;97317.88;;;9.08;100.00
51452;BME280;37521;52.020;-1.740;2022-11-15T12:40:20;97321.50;;;9.07;100.00
51452;BME280;37521;52.020;-1.740;2022-11-15T12:45:48;97343.47;;;9.38;100.00
51452;BME280;37521;52.020;-1.740;2022-11-15T12:51:16;97350.25;;;9.62;100.00
51452;BME280;37521;52.020;-1.740;2022-11-15T12:53:44;97352.84;;;9.52;100.00
51452;BME280;37521;52.020;-1.740;2022-11-15T12:56:20;97363.44;;;9.41;100.00
51452;BME280;37521;52.020;-1.740;2022-11-15T12:58:54;97357.47;;;9.39;100.00
51452;BME280;37521;52.020;-1.740;2022-11-15T13:04:29;97339.50;;;9.44;100.00
51452;BME280;37521;52.020;-1.740;2022-11-15T13:07:00;97347.81;;;9.49;100.00
51452;BME280;37521;52.020;-1.740;2022-11-15T13:09:50;97342.88;;;9.55;100.00
51452;BME280;37521;52.020;-1.740;2022-11-15T13:15:51;97357.19;;;9.42;100.00
51452;BME280;37521;52.020;-1.740;2022-11-15T13:18:33;97349.38;;;9.31;100.00
51452;BME280;37521;52.020;-1.740;2022-11-15T13:21:04;97347.25;;;9.24;100.00
51452;BME280;37521;52.020;-1.740;2022-11-15T13:23:54;97353.50;;;9.23;100.00
51452;BME280;37521;52.020;-1.740;2022-11-15T13:26:23;97347.97;;;9.26;100.00
51452;BME280;37521;52.020;-1.740;2022-11-15T13:28:52;97354.97;;;9.37;100.00
51452;BME280;37521;52.020;-1.740;2022-11-15T13:31:28;97355.16;;;9.45;100.00
51452;BME280;37521;52.020;-1.740;2022-11-15T13:33:59;97354.78;;;9.50;100.00
51452;BME280;37521;52.020;-1.740;2022-11-15T13:36:30;97348.09;;;9.46;100.00
51452;BME280;37521;52.020;-1.740;2022-11-15T13:39:02;97357.47;;;9.39;100.00
51452;BME280;37521;52.020;-1.740;2022-11-15T13:41:32;97363.25;;;9.33;100.00
51452;BME280;37521;52.020;-1.740;2022-11-15T13:44:02;97370.31;;;9.32;100.00
51452;BME280;37521;52.020;-1.740;2022-11-15T13:46:33;97366.84;;;9.32;100.00
51452;BME280;37521;52.020;-1.740;2022-11-15T13:49:03;97370.44;;;9.31;100.00
51452;BME280;37521;52.020;-1.740;2022-11-15T13:51:35;97375.25;;;9.25;100.00
51452;BME280;37521;52.020;-1.740;2022-11-15T13:54:13;97387.50;;;9.15;100.00
51452;BME280;37521;52.020;-1.740;2022-11-15T13:56:47;97389.69;;;9.10;100.00
51452;BME280;37521;52.020;-1.740;2022-11-15T13:59:21;97377.66;;;8.96;100.00
51452;BME280;37521;52.020;-1.740;2022-11-15T14:01:52;97389.66;;;8.78;100.00
51452;BME280;37521;52.020;-1.740;2022-11-15T14:04:23;97390.66;;;8.66;100.00
51452;BME280;37521;52.020;-1.740;2022-11-15T14:06:54;97395.81;;;8.56;100.00
51452;BME280;37521;52.020;-1.740;2022-11-15T14:09:30;97394.25;;;8.54;100.00
51452;BME280;37521;52.020;-1.740;2022-11-15T14:12:02;97405.75;;;8.53;100.00
51452;BME280;37521;52.020;-1.740;2022-11-15T14:14:48;97396.31;;;8.50;100.00
51452;BME280;37521;52.020;-1.740;2022-11-15T14:17:21;97411.34;;;8.48;100.00
51452;BME280;37521;52.020;-1.740;2022-11-15T14:19:50;97409.94;;;8.44;100.00
51452;BME280;37521;52.020;-1.740;2022-11-15T14:22:21;97412.31;;;8.47;100.00
51452;BME280;37521;52.020;-1.740;2022-11-15T14:25:07;97412.09;;;8.50;100.00
51452;BME280;37521;52.020;-1.740;2022-11-15T14:27:35;97406.09;;;8.48;100.00
51452;BME280;37521;52.020;-1.740;2022-11-15T14:30:04;97410.91;;;8.43;100.00
51452;BME280;37521;52.020;-1.740;2022-11-15T14:32:43;97410.63;;;8.35;100.00
51452;BME280;37521;52.020;-1.740;2022-11-15T14:35:15;97413.97;;;8.26;100.00
51452;BME280;37521;52.020;-1.740;2022-11-15T14:37:43;97417.22;;;8.18;100.00
51452;BME280;37521;52.020;-1.740;2022-11-15T14:40:14;97414.94;;;8.13;100.00